createdAt,value
2023-02-04T00:00:27.434Z,77.59
2023-02-04T00:02:55.181Z,77.67
2023-02-04T00:05:22.882Z,77.64
2023-02-04T00:07:50.606Z,78.10
2023-02-04T00:10:20.046Z,77.36
2023-02-04T00:12:47.706Z,77.48
2023-02-04T00:15:15.466Z,78.29
2023-02-04T00:17:43.223Z,78.25
2023-02-04T00:20:11.682Z,78.26
2023-02-04T00:22:39.469Z,77.88
2023-02-04T00:25:08.420Z,77.77
2023-02-04T00:27:37.535Z,78.01
2023-02-04T00:30:05.583Z,78.04
2023-02-04T00:32:33.319Z,77.91
2023-02-04T00:35:01.789Z,77.48
2023-02-04T00:37:29.482Z,77.65
2023-02-04T00:39:57.171Z,77.55
2023-02-04T00:42:24.937Z,78.05
2023-02-04T00:44:54.677Z,77.77
2023-02-04T00:47:22.466Z,77.10
2023-02-04T00:49:50.180Z,77.51
2023-02-04T00:52:17.891Z,77.83
2023-02-04T00:54:45.622Z,78.12
2023-02-04T00:57:13.314Z,77.65
2023-02-04T00:59:41.009Z,77.99
2023-02-04T01:02:10.264Z,77.11
2023-02-04T01:04:38.021Z,77.58
2023-02-04T01:07:05.755Z,77.05
2023-02-04T01:09:33.967Z,77.29
2023-02-04T01:12:01.714Z,77.61
2023-02-04T01:14:29.522Z,77.38
2023-02-04T01:16:57.258Z,77.71
2023-02-04T01:19:26.465Z,76.86
2023-02-04T01:21:54.150Z,77.04
2023-02-04T01:24:21.880Z,77.32
2023-02-04T01:26:49.564Z,77.79
2023-02-04T01:29:17.312Z,77.22
2023-02-04T01:31:45.112Z,77.17
2023-02-04T01:34:12.808Z,77.22
2023-02-04T01:36:41.881Z,76.90
2023-02-04T01:39:09.625Z,77.08
2023-02-04T01:41:37.383Z,76.73
2023-02-04T01:44:05.149Z,76.71
2023-02-04T01:46:34.417Z,77.18
2023-02-04T01:49:02.482Z,76.95
2023-02-04T01:51:32.014Z,76.88
2023-02-04T01:54:01.436Z,77.05
2023-02-04T01:56:31.414Z,76.68
2023-02-04T01:58:59.587Z,76.89
2023-02-04T02:01:38.502Z,76.93
2023-02-04T02:04:06.924Z,76.92
2023-02-04T02:06:35.818Z,76.93
2023-02-04T02:09:05.509Z,77.16
2023-02-04T02:11:33.886Z,77.07
2023-02-04T02:14:02.019Z,77.03
2023-02-04T02:16:29.978Z,77.19
2023-02-04T02:18:59.947Z,77.08
2023-02-04T02:21:34.970Z,77.07
2023-02-04T02:24:26.052Z,77.36
2023-02-04T02:26:54.590Z,78.01
2023-02-04T02:29:23.277Z,77.67
2023-02-04T02:31:51.724Z,78.03
2023-02-04T02:34:19.569Z,77.53
2023-02-04T02:36:47.335Z,77.76
2023-02-04T02:39:16.599Z,77.17
2023-02-04T02:41:44.327Z,77.16
2023-02-04T02:44:13.357Z,77.22
2023-02-04T02:46:41.514Z,76.88
2023-02-04T02:49:15.619Z,77.04
2023-02-04T02:51:43.983Z,77.31
2023-02-04T02:54:21.031Z,77.88
2023-02-04T02:56:48.989Z,77.53
2023-02-04T02:59:17.848Z,77.73
2023-02-04T03:01:48.293Z,77.38
2023-02-04T03:04:17.128Z,77.52
2023-02-04T03:06:45.042Z,77.12
2023-02-04T03:09:12.906Z,77.59
2023-02-04T03:11:42.172Z,77.47
2023-02-04T03:14:09.953Z,77.60
2023-02-04T03:16:40.383Z,77.19
2023-02-04T03:19:09.583Z,77.35
2023-02-04T03:21:37.976Z,77.46
2023-02-04T03:24:06.417Z,77.50
2023-02-04T03:26:34.558Z,78.01
2023-02-04T03:29:03.782Z,77.76
2023-02-04T03:31:31.561Z,77.67
2023-02-04T03:33:59.405Z,77.86
2023-02-04T03:36:27.101Z,77.81
2023-02-04T03:38:54.808Z,77.59
2023-02-04T03:41:22.627Z,77.96
2023-02-04T03:43:50.339Z,77.86
2023-02-04T03:46:19.557Z,78.22
2023-02-04T03:48:47.300Z,77.79
2023-02-04T03:51:15.085Z,77.72
2023-02-04T03:53:42.771Z,78.41
2023-02-04T03:56:10.949Z,77.79
2023-02-04T03:58:38.670Z,77.93
2023-02-04T04:01:06.724Z,77.87
2023-02-04T04:03:35.869Z,77.48
2023-02-04T04:06:06.291Z,77.75
2023-02-04T04:08:34.461Z,77.47
2023-02-04T04:11:02.158Z,77.68
2023-02-04T04:13:29.861Z,77.70
2023-02-04T04:15:57.602Z,78.00
2023-02-04T04:18:25.314Z,77.94
2023-02-04T04:20:54.393Z,77.88
2023-02-04T04:23:22.106Z,77.91
2023-02-04T04:25:49.831Z,77.93
2023-02-04T04:28:17.779Z,78.39
2023-02-04T04:30:45.821Z,78.30
2023-02-04T04:33:13.606Z,78.08
2023-02-04T04:35:41.332Z,78.24
2023-02-04T04:38:10.439Z,78.85
2023-02-04T04:40:38.162Z,79.07
2023-02-04T04:43:05.900Z,79.28
2023-02-04T04:45:33.617Z,79.49
2023-02-04T04:48:01.363Z,79.51
2023-02-04T04:50:29.063Z,79.18
2023-02-04T04:52:56.917Z,79.77
2023-02-04T04:55:25.990Z,80.00
2023-02-04T04:57:53.665Z,80.19
2023-02-04T05:00:22.681Z,79.68
2023-02-04T05:02:50.445Z,80.36
2023-02-04T05:05:18.292Z,80.50
2023-02-04T05:07:46.072Z,79.96
2023-02-04T05:10:13.822Z,80.55
2023-02-04T05:12:42.949Z,80.94
2023-02-04T05:15:10.943Z,81.08
2023-02-04T05:17:38.697Z,81.17
2023-02-04T05:20:06.916Z,81.36
2023-02-04T05:22:34.658Z,81.64
2023-02-04T05:25:02.392Z,81.58
2023-02-04T05:27:30.090Z,82.00
2023-02-04T05:29:59.220Z,82.01
2023-02-04T05:32:26.951Z,82.11
2023-02-04T05:34:54.747Z,82.27
2023-02-04T05:37:22.445Z,82.73
2023-02-04T05:39:50.146Z,82.60
2023-02-04T05:42:18.016Z,82.67
2023-02-04T05:44:45.718Z,82.82
2023-02-04T05:47:15.127Z,83.61
2023-02-04T05:49:42.804Z,83.04
2023-02-04T05:52:10.498Z,83.32
2023-02-04T05:54:38.165Z,83.15
2023-02-04T05:57:06.215Z,83.54
2023-02-04T05:59:33.926Z,83.32
2023-02-04T06:02:01.642Z,82.94
2023-02-04T06:04:30.758Z,83.43
2023-02-04T06:06:58.463Z,83.26
2023-02-04T06:09:26.126Z,83.60
2023-02-04T06:11:53.780Z,83.55
2023-02-04T06:14:21.452Z,83.39
2023-02-04T06:16:49.131Z,83.59
2023-02-04T06:19:16.858Z,83.46
2023-02-04T06:21:45.901Z,83.94
2023-02-04T06:24:13.634Z,83.77
2023-02-04T06:26:41.309Z,84.03
2023-02-04T06:29:09.011Z,83.74
2023-02-04T06:31:38.390Z,83.71
2023-02-04T06:34:06.578Z,84.02
2023-02-04T06:36:34.255Z,84.06
2023-02-04T06:39:03.303Z,83.98
2023-02-04T06:41:30.977Z,83.74
2023-02-04T06:43:58.662Z,83.56
2023-02-04T06:46:26.383Z,83.62
2023-02-04T06:48:54.044Z,83.14
2023-02-04T06:51:21.740Z,83.01
2023-02-04T06:53:49.472Z,83.15
2023-02-04T06:56:18.517Z,82.95
2023-02-04T06:58:46.193Z,83.31
2023-02-04T07:01:13.839Z,83.76
2023-02-04T07:03:41.582Z,83.27
2023-02-04T07:06:09.378Z,83.13
2023-02-04T07:08:37.072Z,83.40
2023-02-04T07:11:04.710Z,82.89
2023-02-04T07:13:33.899Z,83.15
2023-02-04T07:16:01.634Z,83.64
2023-02-04T07:18:29.350Z,83.72
2023-02-04T07:20:57.061Z,83.52
2023-02-04T07:23:25.375Z,83.26
2023-02-04T07:25:53.872Z,83.57
2023-02-04T07:28:21.541Z,83.54
2023-02-04T07:30:50.657Z,83.42
2023-02-04T07:33:18.499Z,83.21
2023-02-04T07:35:46.271Z,83.51
2023-02-04T07:38:13.941Z,83.74
2023-02-04T07:40:41.636Z,83.99
2023-02-04T07:43:09.355Z,83.85
2023-02-04T07:45:37.122Z,83.59
2023-02-04T07:48:06.932Z,83.78
2023-02-04T07:50:35.077Z,83.54
2023-02-04T07:53:03.102Z,83.56
2023-02-04T07:55:30.859Z,83.78
2023-02-04T07:57:58.556Z,83.49
2023-02-04T08:00:26.260Z,83.79
2023-02-04T08:02:53.948Z,83.85
2023-02-04T08:05:23.121Z,83.82
2023-02-04T08:07:55.329Z,83.46
2023-02-04T08:10:23.066Z,83.31
2023-02-04T08:12:50.728Z,83.25
2023-02-04T08:15:18.396Z,83.67
2023-02-04T08:17:46.080Z,83.81
2023-02-04T08:20:14.013Z,83.26
2023-02-04T08:22:43.112Z,82.94
2023-02-04T08:25:11.668Z,82.86
2023-02-04T08:27:39.497Z,83.50
2023-02-04T08:30:08.577Z,83.41
2023-02-04T08:32:36.576Z,82.94
2023-02-04T08:35:06.401Z,83.41
2023-02-04T08:37:34.282Z,82.89
2023-02-04T08:40:03.417Z,83.24
2023-02-04T08:42:31.609Z,83.03
2023-02-04T08:44:59.402Z,83.19
2023-02-04T08:47:27.259Z,82.79
2023-02-04T08:49:55.123Z,83.17
2023-02-04T08:52:22.832Z,82.92
2023-02-04T08:54:50.589Z,82.77
2023-02-04T08:57:19.717Z,83.08
2023-02-04T08:59:47.474Z,82.66
2023-02-04T09:02:15.263Z,82.90
2023-02-04T09:04:43.095Z,82.46
2023-02-04T09:07:10.836Z,82.30
2023-02-04T09:09:38.640Z,82.39
2023-02-04T09:12:06.411Z,82.52
2023-02-04T09:14:35.619Z,82.54
2023-02-04T09:17:04.192Z,82.39
2023-02-04T09:19:31.954Z,81.73
2023-02-04T09:21:59.631Z,81.44
2023-02-04T09:24:27.418Z,81.22
2023-02-04T09:26:55.163Z,80.70
2023-02-04T09:29:22.981Z,80.30
2023-02-04T09:31:52.179Z,80.49
2023-02-04T09:34:19.902Z,80.08
2023-02-04T09:36:47.613Z,80.14
2023-02-04T09:39:15.331Z,80.43
2023-02-04T09:41:43.836Z,80.25
2023-02-04T09:44:15.669Z,80.38
2023-02-04T09:46:48.096Z,79.83
2023-02-04T09:49:17.222Z,79.65
2023-02-04T09:51:47.034Z,79.91
2023-02-04T09:54:17.276Z,79.90
2023-02-04T09:56:45.498Z,79.49
2023-02-04T09:59:14.901Z,79.91
2023-02-04T10:01:42.659Z,79.95
2023-02-04T10:04:13.711Z,79.79
2023-02-04T10:06:43.867Z,79.90
2023-02-04T10:09:12.678Z,79.45
2023-02-04T10:11:42.546Z,79.46
2023-02-04T10:14:15.570Z,79.02
2023-02-04T10:16:45.038Z,78.31
2023-02-04T10:19:15.397Z,78.24
2023-02-04T10:21:46.125Z,78.44
2023-02-04T10:24:17.354Z,77.47
2023-02-04T10:26:45.037Z,77.72
2023-02-04T10:29:17.881Z,77.50
2023-02-04T10:31:46.964Z,77.31
2023-02-04T10:34:18.952Z,76.96
2023-02-04T10:36:50.300Z,77.02
2023-02-04T10:39:20.330Z,77.54
2023-02-04T10:41:50.119Z,77.14
2023-02-04T10:44:21.212Z,76.75
2023-02-04T10:46:49.419Z,76.69
2023-02-04T10:49:22.965Z,76.93
2023-02-04T10:51:53.787Z,76.52
2023-02-04T10:54:32.225Z,76.40
2023-02-04T10:57:02.062Z,75.99
2023-02-04T10:59:30.031Z,75.88
2023-02-04T11:01:59.687Z,76.51
2023-02-04T11:04:28.831Z,76.38
2023-02-04T11:06:58.086Z,76.00
2023-02-04T11:09:25.993Z,76.31
2023-02-04T11:11:53.773Z,75.73
2023-02-04T11:14:28.230Z,76.47
2023-02-04T11:17:00.796Z,76.13
2023-02-04T11:19:35.316Z,76.24
2023-02-04T11:22:23.779Z,76.34
2023-02-04T11:24:52.650Z,76.24
2023-02-04T11:27:24.838Z,75.84
2023-02-04T11:29:53.177Z,75.75
2023-02-04T11:32:37.677Z,76.03
2023-02-04T11:35:23.201Z,75.74
2023-02-04T11:37:53.224Z,75.51
2023-02-04T11:40:28.998Z,75.94
2023-02-04T11:43:01.593Z,75.16
2023-02-04T11:45:33.134Z,75.12
2023-02-04T11:48:03.731Z,75.45
2023-02-04T11:50:33.060Z,75.45
2023-02-04T11:53:03.210Z,74.58
2023-02-04T11:55:32.982Z,74.40
2023-02-04T11:58:00.814Z,73.28
2023-02-04T12:00:31.840Z,73.67
2023-02-04T12:03:02.183Z,74.04
2023-02-04T12:05:43.993Z,73.77
2023-02-04T12:08:15.049Z,73.66
2023-02-04T12:10:50.057Z,74.33
2023-02-04T12:13:20.062Z,73.43
2023-02-04T12:15:56.351Z,72.69
2023-02-04T12:18:24.070Z,74.11
2023-02-04T12:20:51.797Z,73.83
2023-02-04T12:23:21.275Z,73.33
2023-02-04T12:25:49.265Z,72.24
2023-02-04T12:28:17.729Z,71.94
2023-02-04T12:30:45.571Z,72.47
2023-02-04T12:33:14.962Z,72.61
2023-02-04T12:35:43.223Z,72.34
2023-02-04T12:38:11.338Z,73.03
2023-02-04T12:40:40.395Z,72.84
2023-02-04T12:43:08.185Z,72.39
2023-02-04T12:45:35.921Z,72.35
2023-02-04T12:48:03.880Z,71.76
2023-02-04T12:50:31.703Z,72.20
2023-02-04T12:53:00.847Z,72.34
2023-02-04T12:55:29.998Z,72.43
2023-02-04T12:57:59.585Z,71.54
2023-02-04T13:00:27.736Z,71.20
2023-02-04T13:02:56.145Z,71.81
2023-02-04T13:05:23.978Z,71.23
2023-02-04T13:07:57.671Z,71.29
2023-02-04T13:10:25.503Z,70.92
2023-02-04T13:12:53.310Z,70.99
2023-02-04T13:15:22.741Z,70.99
2023-02-04T13:17:50.813Z,69.61
2023-02-04T13:20:18.968Z,69.86
2023-02-04T13:22:46.694Z,70.50
2023-02-04T13:25:14.716Z,69.91
2023-02-04T13:27:42.547Z,69.56
2023-02-04T13:30:12.719Z,69.83
2023-02-04T13:32:42.104Z,69.70
2023-02-04T13:35:09.921Z,70.51
2023-02-04T13:37:38.160Z,69.94
2023-02-04T13:40:06.281Z,70.11
2023-02-04T13:42:34.091Z,69.25
2023-02-04T13:45:01.869Z,68.17
2023-02-04T13:47:29.659Z,67.98
2023-02-04T13:49:58.923Z,67.37
2023-02-04T13:52:26.742Z,66.62
2023-02-04T13:54:55.400Z,67.47
2023-02-04T13:57:23.254Z,66.87
2023-02-04T13:59:51.123Z,65.90
2023-02-04T14:02:19.017Z,66.15
2023-02-04T14:04:46.857Z,66.38
2023-02-04T14:07:15.979Z,67.12
2023-02-04T14:09:43.818Z,67.14
2023-02-04T14:12:11.591Z,67.54
2023-02-04T14:14:39.417Z,66.66
2023-02-04T14:17:07.253Z,66.35
2023-02-04T14:19:35.142Z,66.32
2023-02-04T14:22:03.059Z,66.59
2023-02-04T14:24:32.367Z,65.96
2023-02-04T14:27:01.545Z,65.87
2023-02-04T14:29:29.251Z,66.04
2023-02-04T14:31:57.037Z,66.03
2023-02-04T14:34:25.844Z,66.37
2023-02-04T14:36:53.647Z,66.43
2023-02-04T14:39:21.558Z,66.77
2023-02-04T14:41:50.721Z,65.73
2023-02-04T14:44:21.009Z,63.08
2023-02-04T14:46:49.757Z,63.05
2023-02-04T14:49:18.229Z,63.81
2023-02-04T14:51:46.009Z,63.06
2023-02-04T14:54:14.663Z,63.54
2023-02-04T14:56:42.404Z,63.88
2023-02-04T14:59:11.631Z,63.67
2023-02-04T15:01:39.492Z,63.45
2023-02-04T15:04:07.271Z,63.61
2023-02-04T15:06:35.040Z,63.20
2023-02-04T15:09:02.890Z,63.03
2023-02-04T15:11:31.519Z,62.77
2023-02-04T15:13:59.352Z,62.63
2023-02-04T15:16:28.492Z,62.75
2023-02-04T15:18:56.476Z,62.99
2023-02-04T15:21:24.316Z,62.50
2023-02-04T15:23:52.078Z,63.63
2023-02-04T15:26:19.991Z,64.11
2023-02-04T15:28:47.806Z,64.33
2023-02-04T15:31:15.759Z,65.33
2023-02-04T15:33:44.957Z,65.31
2023-02-04T15:36:12.928Z,65.29
2023-02-04T15:38:40.782Z,64.89
2023-02-04T15:41:08.608Z,65.48
2023-02-04T15:43:36.442Z,65.56
2023-02-04T15:46:04.340Z,65.26
2023-02-04T15:48:32.364Z,65.65
2023-02-04T15:51:01.592Z,65.92
2023-02-04T15:53:29.429Z,66.37
2023-02-04T15:55:57.190Z,66.96
2023-02-04T15:58:24.926Z,66.61
2023-02-04T16:00:52.659Z,66.34
2023-02-04T16:03:20.448Z,66.71
2023-02-04T16:05:48.252Z,67.18
2023-02-04T16:08:17.414Z,67.71
2023-02-04T16:10:45.167Z,67.58
2023-02-04T16:13:12.891Z,67.96
2023-02-04T16:15:41.472Z,67.98
2023-02-04T16:18:09.218Z,68.18
2023-02-04T16:20:36.995Z,68.33
2023-02-04T16:23:07.116Z,68.56
2023-02-04T16:25:36.319Z,68.61
2023-02-04T16:28:05.542Z,69.31
2023-02-04T16:30:33.411Z,70.12
2023-02-04T16:33:01.184Z,69.34
2023-02-04T16:35:28.962Z,69.86
2023-02-04T16:37:56.657Z,70.12
2023-02-04T16:40:24.479Z,70.37
2023-02-04T16:42:53.626Z,70.63
2023-02-04T16:45:22.634Z,70.42
2023-02-04T16:47:51.715Z,71.05
2023-02-04T16:50:21.991Z,70.58
2023-02-04T16:52:49.799Z,70.41
2023-02-04T16:55:17.759Z,70.91
2023-02-04T16:57:45.608Z,70.49
2023-02-04T17:00:15.818Z,70.85
2023-02-04T17:02:44.236Z,70.88
2023-02-04T17:05:12.143Z,70.78
2023-02-04T17:07:39.901Z,71.03
2023-02-04T17:10:08.253Z,71.39
2023-02-04T17:12:36.081Z,71.83
2023-02-04T17:15:04.065Z,71.32
2023-02-04T17:17:33.298Z,71.64
2023-02-04T17:20:01.102Z,70.93
2023-02-04T17:22:29.002Z,70.77
2023-02-04T17:24:56.844Z,70.77
2023-02-04T17:27:24.710Z,70.50
2023-02-04T17:29:52.626Z,71.18
2023-02-04T17:32:20.424Z,70.88
2023-02-04T17:34:50.895Z,70.99
2023-02-04T17:37:18.695Z,70.16
2023-02-04T17:39:46.469Z,70.70
2023-02-04T17:42:14.285Z,70.72
2023-02-04T17:44:42.748Z,71.05
2023-02-04T17:47:10.897Z,71.02
2023-02-04T17:49:39.004Z,70.55
2023-02-04T17:52:09.482Z,70.63
2023-02-04T17:54:37.249Z,71.05
2023-02-04T17:57:17.348Z,71.12
2023-02-04T17:59:45.378Z,70.94
2023-02-04T18:02:24.699Z,71.16
2023-02-04T18:04:54.579Z,71.62
2023-02-04T18:07:24.178Z,71.46
2023-02-04T18:09:52.188Z,71.20
2023-02-04T18:12:21.220Z,71.30
2023-02-04T18:14:49.009Z,71.79
2023-02-04T18:17:17.141Z,72.17
2023-02-04T18:19:45.360Z,72.40
2023-02-04T18:22:15.801Z,72.37
2023-02-04T18:24:48.560Z,72.37
2023-02-04T18:27:18.880Z,72.56
2023-02-04T18:29:49.632Z,72.49
2023-02-04T18:32:21.833Z,72.69
2023-02-04T18:34:51.883Z,72.64
2023-02-04T18:37:30.726Z,72.54
2023-02-04T18:40:21.110Z,72.76
2023-02-04T18:42:49.724Z,72.99
2023-02-04T18:45:24.213Z,72.93
2023-02-04T18:47:55.010Z,72.83
2023-02-04T18:50:33.636Z,72.69
2023-02-04T18:53:07.372Z,72.63
2023-02-04T18:55:38.709Z,73.13
2023-02-04T18:58:26.325Z,73.04
2023-02-04T19:00:59.471Z,72.73
2023-02-04T19:03:29.468Z,73.07
2023-02-04T19:06:00.233Z,73.70
2023-02-04T19:08:30.277Z,73.73
2023-02-04T19:11:00.413Z,73.50
2023-02-04T19:13:39.545Z,73.52
2023-02-04T19:16:21.393Z,73.82
2023-02-04T19:18:49.801Z,73.59
2023-02-04T19:21:27.448Z,73.81
2023-02-04T19:24:00.237Z,73.08
2023-02-04T19:26:35.970Z,73.71
2023-02-04T19:29:39.591Z,73.70
2023-02-04T19:32:27.459Z,73.71
2023-02-04T19:34:58.590Z,73.75
2023-02-04T19:37:28.346Z,73.98
2023-02-04T19:39:57.250Z,74.21
2023-02-04T19:42:36.810Z,74.46
2023-02-04T19:45:17.983Z,74.26
2023-02-04T19:47:46.643Z,74.02
2023-02-04T19:50:23.818Z,73.89
2023-02-04T19:52:53.313Z,74.13
2023-02-04T19:55:33.615Z,74.16
2023-02-04T19:58:12.269Z,75.07
2023-02-04T20:00:47.944Z,75.25
2023-02-04T20:03:25.754Z,75.05
2023-02-04T20:05:53.766Z,74.94
2023-02-04T20:08:44.305Z,75.00
2023-02-04T20:11:43.438Z,75.33
2023-02-04T20:14:41.567Z,75.20
2023-02-04T20:17:36.445Z,75.04
2023-02-04T20:20:28.522Z,75.54
2023-02-04T20:22:58.428Z,75.63
2023-02-04T20:25:42.090Z,75.52
2023-02-04T20:28:41.186Z,75.88
2023-02-04T20:31:25.682Z,75.45
2023-02-04T20:33:56.086Z,75.28
2023-02-04T20:36:30.557Z,75.63
2023-02-04T20:39:19.214Z,75.58
2023-02-04T20:41:47.028Z,75.90
2023-02-04T20:44:18.318Z,75.51
2023-02-04T20:46:48.056Z,75.63
2023-02-04T20:49:24.307Z,75.77
2023-02-04T20:51:52.987Z,76.02
2023-02-04T20:54:20.785Z,75.58
2023-02-04T20:56:48.617Z,75.47
2023-02-04T20:59:33.736Z,75.94
2023-02-04T21:02:16.312Z,75.62
2023-02-04T21:04:47.157Z,75.81
2023-02-04T21:07:19.225Z,75.91
2023-02-04T21:09:48.201Z,75.69
2023-02-04T21:12:16.868Z,76.38
2023-02-04T21:14:44.863Z,76.31
2023-02-04T21:17:14.015Z,75.94
2023-02-04T21:19:41.779Z,75.86
2023-02-04T21:22:09.509Z,76.03
2023-02-04T21:24:37.277Z,76.41
2023-02-04T21:27:05.248Z,76.38
2023-02-04T21:29:33.078Z,76.55
2023-02-04T21:32:00.882Z,76.54
2023-02-04T21:34:30.022Z,76.51
2023-02-04T21:36:57.784Z,76.95
2023-02-04T21:39:25.600Z,77.02
2023-02-04T21:42:10.134Z,77.11
2023-02-04T21:44:38.173Z,77.05
2023-02-04T21:47:06.289Z,77.42
2023-02-04T21:49:36.904Z,77.57
2023-02-04T21:52:06.812Z,77.43
2023-02-04T21:54:34.672Z,77.74
2023-02-04T21:57:04.426Z,77.93
2023-02-04T21:59:32.277Z,78.21
2023-02-04T22:02:00.473Z,78.14
2023-02-04T22:04:28.384Z,77.84
2023-02-04T22:06:57.620Z,77.94
2023-02-04T22:09:25.385Z,77.87
2023-02-04T22:11:53.166Z,78.27
2023-02-04T22:14:20.904Z,78.07
2023-02-04T22:16:49.557Z,77.79
2023-02-04T22:19:17.322Z,77.91
2023-02-04T22:21:45.128Z,77.40
2023-02-04T22:24:14.360Z,78.04
2023-02-04T22:26:42.075Z,77.55
2023-02-04T22:29:09.786Z,77.96
2023-02-04T22:31:37.537Z,77.92
2023-02-04T22:34:05.513Z,78.12
2023-02-04T22:36:33.306Z,78.09
2023-02-04T22:39:00.987Z,78.05
2023-02-04T22:41:30.332Z,77.90
2023-02-04T22:43:58.173Z,77.51
2023-02-04T22:46:26.048Z,77.77
2023-02-04T22:48:53.983Z,78.06
2023-02-04T22:51:21.830Z,77.88
2023-02-04T22:53:49.599Z,78.29
2023-02-04T22:56:17.427Z,78.38
2023-02-04T22:58:46.627Z,78.50
2023-02-04T23:01:14.514Z,78.40
2023-02-04T23:03:42.334Z,78.39
2023-02-04T23:06:10.662Z,78.36
2023-02-04T23:08:38.414Z,78.15
2023-02-04T23:11:06.462Z,78.18
2023-02-04T23:13:34.315Z,78.49
2023-02-04T23:16:03.592Z,78.39
2023-02-04T23:18:31.375Z,78.63
2023-02-04T23:20:59.114Z,78.41
2023-02-04T23:23:28.692Z,78.23
2023-02-04T23:25:56.494Z,78.79
2023-02-04T23:28:24.181Z,78.62
2023-02-04T23:30:51.951Z,78.49
2023-02-04T23:33:21.207Z,78.71
2023-02-04T23:35:49.391Z,78.16
2023-02-04T23:38:17.195Z,78.71
2023-02-04T23:40:44.943Z,78.42
2023-02-04T23:43:12.789Z,78.34
2023-02-04T23:45:40.665Z,78.77
2023-02-04T23:48:08.437Z,78.59
2023-02-04T23:50:37.686Z,78.89
2023-02-04T23:53:05.439Z,79.02
2023-02-04T23:55:33.732Z,79.13
2023-02-04T23:58:01.770Z,78.89
